createdAt,value
2022-11-16T00:04:20.241Z,7.74
2022-11-16T00:14:29.492Z,7.84
2022-11-16T00:24:36.768Z,7.69
2022-11-16T00:34:44.093Z,7.65
2022-11-16T00:44:49.962Z,7.64
2022-11-16T00:54:57.306Z,7.65
2022-11-16T01:05:04.767Z,7.78
2022-11-16T01:15:13.195Z,7.85
2022-11-16T01:25:20.885Z,7.91
2022-11-16T01:35:28.424Z,7.94
2022-11-16T01:45:37.084Z,7.62
2022-11-16T01:55:46.514Z,7.63
2022-11-16T02:06:03.535Z,7.61
2022-11-16T02:16:10.470Z,7.26
2022-11-16T02:26:23.366Z,6.98
2022-11-16T02:36:31.034Z,6.81
2022-11-16T02:46:35.976Z,6.69
2022-11-16T02:56:44.531Z,6.49
2022-11-16T03:06:55.153Z,6.48
2022-11-16T03:17:04.803Z,6.41
2022-11-16T03:27:14.851Z,6.19
2022-11-16T03:37:23.326Z,5.96
2022-11-16T03:47:31.274Z,5.86
2022-11-16T03:57:38.502Z,5.87
2022-11-16T04:08:04.131Z,5.88
2022-11-16T04:18:27.683Z,5.77
2022-11-16T04:28:37.571Z,5.61
2022-11-16T04:38:45.079Z,5.44
2022-11-16T04:48:52.548Z,5.32
2022-11-16T04:58:59.717Z,5.27
2022-11-16T05:09:06.673Z,5.22
2022-11-16T05:19:32.001Z,5.18
2022-11-16T05:29:39.337Z,5.13
2022-11-16T05:39:46.670Z,5.12
2022-11-16T05:49:54.039Z,5.14
2022-11-16T06:00:01.138Z,5.06
2022-11-16T06:10:09.373Z,5.01
2022-11-16T06:20:16.702Z,4.94
2022-11-16T06:30:23.989Z,4.88
2022-11-16T06:40:31.120Z,4.84
2022-11-16T06:50:38.201Z,4.84
2022-11-16T07:00:45.567Z,4.83
2022-11-16T07:10:52.601Z,4.79
2022-11-16T07:20:59.758Z,4.78
2022-11-16T07:31:07.071Z,4.78
2022-11-16T07:41:16.828Z,4.81
2022-11-16T07:51:24.353Z,4.81
2022-11-16T08:01:31.456Z,4.82
2022-11-16T08:11:37.962Z,4.84
2022-11-16T08:21:45.086Z,4.88
2022-11-16T08:31:52.375Z,4.84
2022-11-16T08:41:59.855Z,4.80
2022-11-16T08:52:06.255Z,4.80
2022-11-16T09:02:12.416Z,4.82
2022-11-16T09:12:20.166Z,4.82
2022-11-16T09:22:27.604Z,4.84
2022-11-16T09:32:34.706Z,4.85
2022-11-16T09:42:42.423Z,4.83
2022-11-16T09:52:52.837Z,4.83
2022-11-16T10:02:59.709Z,4.78
2022-11-16T10:13:05.287Z,4.69
2022-11-16T10:23:17.772Z,4.66
2022-11-16T10:33:28.081Z,4.65
2022-11-16T10:43:34.902Z,4.59
2022-11-16T10:53:44.555Z,4.57
2022-11-16T11:03:52.216Z,4.56
2022-11-16T11:14:04.195Z,4.55
2022-11-16T11:24:43.258Z,4.54
2022-11-16T11:34:47.412Z,4.57
2022-11-16T11:44:57.430Z,4.61
2022-11-16T11:55:04.223Z,4.62
2022-11-16T12:05:24.695Z,4.60
2022-11-16T12:15:59.809Z,4.59
2022-11-16T12:26:09.147Z,4.63
2022-11-16T12:36:16.189Z,4.67
2022-11-16T12:46:25.281Z,4.66
2022-11-16T12:56:32.775Z,4.66
2022-11-16T13:16:45.138Z,4.63
2022-11-16T13:26:55.995Z,4.59
2022-11-16T13:37:03.113Z,4.56
2022-11-16T13:47:24.894Z,4.56
2022-11-16T13:57:35.133Z,4.58
2022-11-16T14:07:39.571Z,4.58
2022-11-16T14:17:51.494Z,4.56
2022-11-16T14:28:03.313Z,4.59
2022-11-16T14:38:23.080Z,4.53
2022-11-16T14:48:31.486Z,4.49
2022-11-16T14:58:39.170Z,4.43
2022-11-16T15:08:46.874Z,4.35
2022-11-16T15:18:59.073Z,4.29
2022-11-16T15:29:06.201Z,4.27
2022-11-16T15:39:11.707Z,4.23
2022-11-16T15:49:20.308Z,4.19
2022-11-16T15:59:26.975Z,4.06
2022-11-16T16:09:36.984Z,3.97
2022-11-16T16:19:46.549Z,3.91
2022-11-16T16:29:54.529Z,3.69
2022-11-16T16:40:01.077Z,3.46
2022-11-16T16:50:05.830Z,3.31
2022-11-16T17:00:15.001Z,3.18
2022-11-16T17:10:19.684Z,3.08
2022-11-16T17:20:26.935Z,3.04
2022-11-16T17:40:38.032Z,2.90
2022-11-16T17:50:48.575Z,2.78
2022-11-16T18:00:56.936Z,2.72
2022-11-16T18:11:05.513Z,2.67
2022-11-16T18:21:20.114Z,2.67
2022-11-16T18:31:29.938Z,2.68
2022-11-16T18:51:42.401Z,2.73
2022-11-16T19:01:49.486Z,2.72
2022-11-16T19:11:56.679Z,2.70
2022-11-16T19:22:04.271Z,2.67
2022-11-16T19:32:11.412Z,2.66
2022-11-16T19:42:17.640Z,2.66
2022-11-16T19:52:24.925Z,2.65
2022-11-16T20:02:32.101Z,2.65
2022-11-16T20:12:39.372Z,2.72
2022-11-16T20:22:48.150Z,2.74
2022-11-16T20:32:57.192Z,2.73
2022-11-16T20:53:09.702Z,2.79
2022-11-16T21:03:17.403Z,2.83
2022-11-16T21:13:42.598Z,2.84
2022-11-16T21:23:51.611Z,2.83
2022-11-16T21:34:00.681Z,2.72
2022-11-16T21:44:06.747Z,2.62
2022-11-16T21:54:14.004Z,2.53
2022-11-16T22:04:38.830Z,2.53
2022-11-16T22:14:45.008Z,2.53
2022-11-16T22:24:53.434Z,2.46
2022-11-16T22:35:00.829Z,2.42
2022-11-16T22:45:07.369Z,2.36
2022-11-16T22:55:14.403Z,2.35
2022-11-16T23:05:22.196Z,2.34
2022-11-16T23:15:47.089Z,2.36
2022-11-16T23:26:11.999Z,2.40
2022-11-16T23:36:19.168Z,2.44
2022-11-16T23:46:26.485Z,2.50
2022-11-16T23:56:33.714Z,2.54
